Погода Вистана неделю

Калифорния, США

01 - 07 сентября
  • 01сентября
    Сегодня
    +17°
    +24°
    Ясно и безоблачно
    ВремяПогодаТемператураВлажностьДавлениеВетер, м/сВероятность осадков
    02:00Ясно и безоблачно+19°C85 %752 мм1.4 м/с2 %
    05:00Ясно и безоблачно+19°C86 %752 мм0.5 м/с2 %
    08:00Ясно и безоблачно+19°C82 %752 мм0.9 м/с2 %
    11:00Ясно и безоблачно+23°C64 %753 мм3.4 м/с2 %
    14:00Ясно и безоблачно+24°C62 %752 мм4.3 м/с2 %
    17:00Ясно и безоблачно+23°C62 %751 мм3.8 м/с2 %
    20:00Ясно и безоблачно+21°C76 %752 мм2.3 м/с2 %
    23:00Ясно и безоблачно+20°C78 %753 мм1.6 м/с2 %
  • 02сентября
    Среда
    +18°
    +24°
    Ясно и безоблачно
    ВремяПогодаТемператураВлажностьДавлениеВетер, м/сВероятность осадков
    02:00Ясно и безоблачно+19°C84 %753 мм1.0 м/с2 %
    05:00Ясно и безоблачно+18°C84 %753 мм0.4 м/с2 %
    08:00Ясно и безоблачно+19°C81 %753 мм0.6 м/с2 %
    11:00Ясно и безоблачно+23°C63 %753 мм3.4 м/с2 %
    14:00Ясно и безоблачно+23°C61 %752 мм4.3 м/с2 %
    17:00Ясно и безоблачно+23°C60 %752 мм3.5 м/с2 %
    20:00Ясно и безоблачно+21°C76 %752 мм2.0 м/с2 %
    23:00Ясно и безоблачно+20°C79 %752 мм0.9 м/с2 %
  • 03сентября
    Четверг
    +17°
    +24°
    Ясно и безоблачно
    ВремяПогодаТемператураВлажностьДавлениеВетер, м/сВероятность осадков
    02:00Ясно и безоблачно+19°C86 %752 мм0.7 м/с2 %
    05:00Облачно с прояснениями+19°C86 %752 мм0.6 м/с2 %
    08:00Ясно и безоблачно+19°C80 %752 мм0.9 м/с2 %
    11:00Ясно и безоблачно+23°C65 %752 мм3.5 м/с2 %
    14:00Ясно и безоблачно+23°C65 %751 мм4.2 м/с2 %
    17:00Ясно и безоблачно+23°C69 %750 мм3.8 м/с2 %
    20:00Практически безоблачно+21°C86 %750 мм2.3 м/с2 %
    23:00Облачно с прояснениями+20°C83 %751 мм1.2 м/с2 %
  • 04сентября
    Пятница
    +18°
    +24°
    Ясно и безоблачно
    ВремяПогодаТемператураВлажностьДавлениеВетер, м/сВероятность осадков
    02:00Практически безоблачно+20°C85 %751 мм0.8 м/с2 %
    05:00Практически безоблачно+19°C88 %750 мм0.5 м/с2 %
    08:00Ясно и безоблачно+19°C89 %751 мм0.7 м/с2 %
    11:00Ясно и безоблачно+23°C65 %752 мм3.7 м/с2 %
    14:00Ясно и безоблачно+24°C63 %750 мм3.9 м/с2 %
    17:00Ясно и безоблачно+24°C63 %750 мм3.4 м/с2 %
    20:00Ясно и безоблачно+21°C87 %751 мм1.8 м/с2 %
    23:00Ясно и безоблачно+20°C85 %751 мм0.6 м/с4 %
  • 05сентября
    Суббота
    +21°
    +26°
    Небольшая облачность
    ВремяПогодаТемператураВлажностьДавлениеВетер, м/сВероятность осадков
    02:00Ясно и безоблачно+20°C87 %751 мм0.8 м/с9 %
    05:00Ясно и безоблачно+19°C84 %750 мм0.5 м/с14 %
    08:00Облачно с прояснениями+21°C72 %752 мм0.7 м/с20 %
    11:00Облачно с прояснениями+24°C59 %751 мм2.6 м/с24 %
    14:00Небольшая облачность+25°C66 %751 мм2.5 м/с28 %
    17:00Практически безоблачно+26°C70 %750 мм2.2 м/с23 %
    20:00Облачно с прояснениями+23°C73 %751 мм1.5 м/с20 %
    23:00Облачно с прояснениями+23°C80 %751 мм0.9 м/с21 %
  • 06сентября
    Воскресенье
    +19°
    +27°
    Облачно с прояснениями
    ВремяПогодаТемператураВлажностьДавлениеВетер, м/сВероятность осадков
    05:00Облачно с прояснениями+21°C85 %750 мм0.9 м/с14 %
    11:00Облачно с прояснениями+25°C81 %752 мм2.4 м/с20 %
    17:00Практически безоблачно+26°C77 %750 мм3.1 м/с20 %
    23:00Ясно и безоблачно+23°C71 %751 мм1.6 м/с22 %
  • 07сентября
    Понедельник
    +17°
    +29°
    Ясно и безоблачно
    ВремяПогодаТемператураВлажностьДавлениеВетер, м/сВероятность осадков
    05:00Ясно и безоблачно+19°C80 %750 мм1.4 м/с24 %
    11:00Ясно и безоблачно+27°C52 %751 мм2.4 м/с25 %
    17:00Ясно и безоблачно+27°C48 %749 мм3.7 м/с24 %
    23:00Ясно и безоблачно+21°C80 %750 мм1.3 м/с10 %
Мы используем cookies
Соглашаюсь